createdAt,value
2018-12-20T00:01:49.121Z,24.83
2018-12-20T00:04:16.773Z,25.87
2018-12-20T00:06:44.344Z,25.53
2018-12-20T00:09:11.860Z,24.40
2018-12-20T00:11:39.566Z,25.47
2018-12-20T00:14:07.099Z,24.43
2018-12-20T00:16:34.816Z,23.53
2018-12-20T00:19:02.427Z,24.40
2018-12-20T00:21:29.975Z,26.77
2018-12-20T00:23:57.566Z,25.17
2018-12-20T00:26:25.214Z,25.60
2018-12-20T00:28:53.091Z,25.50
2018-12-20T00:31:20.639Z,24.83
2018-12-20T00:33:48.223Z,25.13
2018-12-20T00:36:15.916Z,25.33
2018-12-20T00:38:43.471Z,23.33
2018-12-20T00:41:11.069Z,24.53
2018-12-20T00:43:38.694Z,24.83
2018-12-20T00:46:06.222Z,25.73
2018-12-20T00:48:33.752Z,23.63
2018-12-20T00:51:01.500Z,25.10
2018-12-20T00:53:29.761Z,23.60
2018-12-20T00:55:57.356Z,25.43
2018-12-20T00:58:24.934Z,25.30
2018-12-20T01:00:52.581Z,25.57
2018-12-20T01:03:20.219Z,25.00
2018-12-20T01:05:48.112Z,26.07
2018-12-20T01:08:15.732Z,26.37
2018-12-20T01:10:43.227Z,26.13
2018-12-20T01:13:10.814Z,24.90
2018-12-20T01:15:38.361Z,25.77
2018-12-20T01:18:05.917Z,25.03
2018-12-20T01:20:33.490Z,25.63
2018-12-20T01:23:01.045Z,26.93
2018-12-20T01:25:28.723Z,26.83
2018-12-20T01:27:56.466Z,28.13
2018-12-20T01:30:24.045Z,26.90
2018-12-20T01:32:51.856Z,26.40
2018-12-20T01:35:20.122Z,26.67
2018-12-20T01:37:47.649Z,27.27
2018-12-20T01:40:15.142Z,26.27
2018-12-20T01:42:42.638Z,27.17
2018-12-20T01:45:10.197Z,26.60
2018-12-20T01:47:37.763Z,26.30
2018-12-20T01:50:07.226Z,26.30
2018-12-20T01:52:34.753Z,26.13
2018-12-20T01:55:02.350Z,27.73
2018-12-20T01:57:30.191Z,24.57
2018-12-20T01:59:57.858Z,25.70
2018-12-20T02:02:25.436Z,24.10
2018-12-20T02:04:53.196Z,23.50
2018-12-20T02:07:20.839Z,25.03
2018-12-20T02:09:48.453Z,24.20
2018-12-20T02:12:16.085Z,24.53
2018-12-20T02:14:43.691Z,25.40
2018-12-20T02:17:11.289Z,24.37
2018-12-20T02:19:38.964Z,23.80
2018-12-20T02:22:06.696Z,21.00
2018-12-20T02:24:34.248Z,22.30
2018-12-20T02:27:01.858Z,22.93
2018-12-20T02:29:29.393Z,21.87
2018-12-20T02:31:58.974Z,22.77
2018-12-20T02:34:26.838Z,23.17
2018-12-20T02:36:54.629Z,23.67
2018-12-20T02:39:22.389Z,22.40
2018-12-20T02:41:50.178Z,22.10
2018-12-20T02:44:17.947Z,23.30
2018-12-20T02:46:45.470Z,21.70
2018-12-20T02:49:13.297Z,21.80
2018-12-20T02:51:40.901Z,22.73
2018-12-20T02:54:08.550Z,22.60
2018-12-20T02:56:36.413Z,24.53
2018-12-20T02:59:04.045Z,22.80
2018-12-20T03:01:31.562Z,23.50
2018-12-20T03:03:59.051Z,23.20
2018-12-20T03:06:26.642Z,23.47
2018-12-20T03:08:54.152Z,24.60
2018-12-20T03:11:21.798Z,23.87
2018-12-20T03:13:49.503Z,23.77
2018-12-20T03:16:17.293Z,22.23
2018-12-20T03:18:44.881Z,23.73
2018-12-20T03:21:12.685Z,23.07
2018-12-20T03:23:40.491Z,23.10
2018-12-20T03:26:08.086Z,23.70
2018-12-20T03:28:35.651Z,22.70
2018-12-20T03:31:03.298Z,21.70
2018-12-20T03:33:30.879Z,23.60
2018-12-20T03:35:58.569Z,23.20
2018-12-20T03:38:26.212Z,24.40
2018-12-20T03:40:53.779Z,23.37
2018-12-20T03:43:21.907Z,23.17
2018-12-20T03:45:49.446Z,23.07
2018-12-20T03:48:17.006Z,22.97
2018-12-20T03:50:44.611Z,23.10
2018-12-20T03:53:12.206Z,22.20
2018-12-20T03:55:39.839Z,22.10
2018-12-20T03:58:07.695Z,22.97
2018-12-20T04:00:35.522Z,22.53
2018-12-20T04:03:03.375Z,21.70
2018-12-20T04:05:30.985Z,21.57
2018-12-20T04:07:58.518Z,22.27
2018-12-20T04:10:26.227Z,22.13
2018-12-20T04:12:53.770Z,22.10
2018-12-20T04:15:21.384Z,22.37
2018-12-20T04:17:49.048Z,22.27
2018-12-20T04:20:16.763Z,22.30
2018-12-20T04:22:44.645Z,21.50
2018-12-20T04:25:12.324Z,21.77
2018-12-20T04:27:39.909Z,22.10
2018-12-20T04:30:11.561Z,22.60
2018-12-20T04:32:39.196Z,22.00
2018-12-20T04:35:06.997Z,22.40
2018-12-20T04:37:34.754Z,22.57
2018-12-20T04:40:02.381Z,23.60
2018-12-20T04:42:30.274Z,23.00
2018-12-20T04:44:57.932Z,23.87
2018-12-20T04:47:25.485Z,23.87
2018-12-20T04:49:53.090Z,24.10
2018-12-20T04:52:20.684Z,23.37
2018-12-20T04:54:48.299Z,23.10
2018-12-20T04:57:16.145Z,23.00
2018-12-20T04:59:43.810Z,24.33
2018-12-20T05:02:11.607Z,20.83
2018-12-20T05:04:39.219Z,22.07
2018-12-20T05:07:06.819Z,22.73
2018-12-20T05:09:34.517Z,22.57
2018-12-20T05:12:02.128Z,21.73
2018-12-20T05:14:29.666Z,20.97
2018-12-20T05:16:57.358Z,22.63
2018-12-20T05:19:25.063Z,20.97
2018-12-20T05:21:52.719Z,22.60
2018-12-20T05:24:20.589Z,21.00
2018-12-20T05:26:48.341Z,22.80
2018-12-20T05:29:15.988Z,20.93
2018-12-20T05:31:43.539Z,22.47
2018-12-20T05:34:11.144Z,21.70
2018-12-20T05:36:38.672Z,21.30
2018-12-20T05:39:06.644Z,22.07
2018-12-20T05:41:34.245Z,22.43
2018-12-20T05:44:01.801Z,22.93
2018-12-20T05:46:29.477Z,23.00
2018-12-20T05:48:57.210Z,21.50
2018-12-20T05:51:24.897Z,21.20
2018-12-20T05:53:52.528Z,21.73
2018-12-20T05:56:20.082Z,21.67
2018-12-20T05:58:48.068Z,23.17
2018-12-20T06:01:15.712Z,22.77
2018-12-20T06:03:43.237Z,21.83
2018-12-20T06:06:10.934Z,22.43
2018-12-20T06:08:38.680Z,22.10
2018-12-20T06:11:06.214Z,22.00
2018-12-20T06:13:33.861Z,34.93
2018-12-20T06:16:01.596Z,23.57
2018-12-20T06:18:29.434Z,22.63
2018-12-20T06:20:57.067Z,23.27
2018-12-20T06:23:24.688Z,23.63
2018-12-20T06:25:52.316Z,25.00
2018-12-20T06:28:19.844Z,23.80
2018-12-20T06:30:47.343Z,24.87
2018-12-20T06:33:14.848Z,27.20
2018-12-20T06:35:42.378Z,22.27
2018-12-20T06:38:09.883Z,21.77
2018-12-20T06:40:37.411Z,22.83
2018-12-20T06:43:04.917Z,21.03
2018-12-20T06:45:32.448Z,21.67
2018-12-20T06:47:59.952Z,23.33
2018-12-20T06:50:27.480Z,23.43
2018-12-20T06:52:54.988Z,20.50
2018-12-20T06:55:22.494Z,20.43
2018-12-20T06:57:50.020Z,19.40
2018-12-20T07:00:17.533Z,20.93
2018-12-20T07:02:45.064Z,19.40
2018-12-20T07:05:12.572Z,18.27
2018-12-20T07:07:40.095Z,17.27
2018-12-20T07:10:08.759Z,18.40
2018-12-20T07:12:36.284Z,18.33
2018-12-20T07:15:04.348Z,19.00
2018-12-20T07:17:31.960Z,18.20
2018-12-20T07:19:59.468Z,17.70
2018-12-20T07:22:27.056Z,18.17
2018-12-20T07:24:54.583Z,15.50
2018-12-20T07:27:22.084Z,14.23
2018-12-20T07:29:49.607Z,14.50
2018-12-20T07:32:24.898Z,13.67
2018-12-20T07:34:47.994Z,13.10
2018-12-20T07:37:15.876Z,13.40
2018-12-20T07:39:43.413Z,13.40
2018-12-20T07:42:10.917Z,12.93
2018-12-20T07:44:38.453Z,12.87
2018-12-20T07:47:05.965Z,12.60
2018-12-20T07:49:33.468Z,14.37
2018-12-20T07:52:00.992Z,13.03
2018-12-20T07:54:28.497Z,13.47
2018-12-20T07:56:56.023Z,13.20
2018-12-20T07:59:23.710Z,13.83
2018-12-20T08:01:51.473Z,12.77
2018-12-20T08:04:18.976Z,13.53
2018-12-20T08:06:46.508Z,11.13
2018-12-20T08:09:14.012Z,12.03
2018-12-20T08:11:41.546Z,10.63
2018-12-20T08:14:09.153Z,11.00
2018-12-20T08:16:36.680Z,10.80
2018-12-20T08:19:04.183Z,10.20
2018-12-20T08:21:31.685Z,9.60
2018-12-20T08:23:59.212Z,9.90
2018-12-20T08:26:26.716Z,9.50
2018-12-20T08:28:54.239Z,8.60
2018-12-20T08:31:21.739Z,9.70
2018-12-20T08:33:49.371Z,8.57
2018-12-20T08:36:16.888Z,7.47
2018-12-20T08:38:44.408Z,7.70
2018-12-20T08:41:11.909Z,7.57
2018-12-20T08:43:39.435Z,7.13
2018-12-20T08:46:06.951Z,7.33
2018-12-20T08:48:34.476Z,7.10
2018-12-20T08:51:02.057Z,6.47
2018-12-20T08:53:29.584Z,6.20
2018-12-20T08:55:57.084Z,5.97
2018-12-20T08:58:24.644Z,5.60
2018-12-20T09:00:52.153Z,6.87
2018-12-20T09:03:19.675Z,5.80
2018-12-20T09:05:47.179Z,5.60
2018-12-20T09:08:14.704Z,5.53
2018-12-20T09:10:42.204Z,5.60
2018-12-20T09:13:10.011Z,5.67
2018-12-20T09:15:37.639Z,7.10
2018-12-20T09:18:05.160Z,6.37
2018-12-20T09:20:33.069Z,5.83
2018-12-20T09:23:00.808Z,5.97
2018-12-20T09:25:28.308Z,6.00
2018-12-20T09:27:55.812Z,6.67
2018-12-20T09:30:30.300Z,6.37
2018-12-20T09:32:52.844Z,6.20
2018-12-20T09:35:20.373Z,6.47
2018-12-20T09:37:47.877Z,6.20
2018-12-20T09:40:15.404Z,5.87
2018-12-20T09:42:42.903Z,5.97
2018-12-20T09:45:10.430Z,6.47
2018-12-20T09:47:43.636Z,6.90
2018-12-20T09:50:11.156Z,6.50
2018-12-20T09:52:38.662Z,5.30
2018-12-20T09:55:06.261Z,6.53
2018-12-20T09:57:33.765Z,4.97
2018-12-20T10:00:01.292Z,4.60
2018-12-20T10:02:28.796Z,5.57
2018-12-20T10:04:56.320Z,5.27
2018-12-20T10:07:23.824Z,5.40
2018-12-20T10:09:51.348Z,4.67
2018-12-20T10:12:18.839Z,4.30
2018-12-20T10:14:46.360Z,5.80
2018-12-20T10:17:19.843Z,4.83
2018-12-20T10:19:43.409Z,5.10
2018-12-20T10:22:10.984Z,4.87
2018-12-20T10:24:38.501Z,5.17
2018-12-20T10:27:06.174Z,6.37
2018-12-20T10:29:33.709Z,5.20
2018-12-20T10:32:01.213Z,4.03
2018-12-20T10:34:28.720Z,5.37
2018-12-20T10:36:56.252Z,9.10
2018-12-20T10:39:23.755Z,4.50
2018-12-20T10:41:51.281Z,3.80
2018-12-20T10:44:18.785Z,4.50
2018-12-20T10:46:46.304Z,8.70
2018-12-20T10:49:13.828Z,12.90
2018-12-20T10:51:41.356Z,8.87
2018-12-20T10:54:08.858Z,4.87
2018-12-20T10:56:36.393Z,11.43
2018-12-20T10:59:03.910Z,8.23
2018-12-20T11:01:46.603Z,2.90
2018-12-20T11:04:20.112Z,4.23
2018-12-20T11:06:53.267Z,4.57
2018-12-20T11:09:26.448Z,3.03
2018-12-20T11:11:59.716Z,2.97
2018-12-20T11:14:27.220Z,5.47
2018-12-20T11:16:54.729Z,3.70
2018-12-20T11:19:22.257Z,3.07
2018-12-20T11:21:49.751Z,2.30
2018-12-20T11:24:17.274Z,2.10
2018-12-20T11:26:44.775Z,2.20
2018-12-20T11:29:12.301Z,1.97
2018-12-20T11:31:39.801Z,1.90
2018-12-20T11:34:07.319Z,1.90
2018-12-20T11:36:34.824Z,2.53
2018-12-20T11:39:08.360Z,4.07
2018-12-20T11:41:33.448Z,2.13
2018-12-20T11:44:01.051Z,2.60
2018-12-20T11:46:28.549Z,1.80
2018-12-20T11:48:56.063Z,1.83
2018-12-20T11:51:23.560Z,2.00
2018-12-20T11:53:51.084Z,1.60
2018-12-20T11:56:18.584Z,1.80
2018-12-20T11:58:46.112Z,1.90
2018-12-20T12:01:13.613Z,1.77
2018-12-20T12:03:41.136Z,1.90
2018-12-20T12:06:08.635Z,1.70
2018-12-20T12:08:36.141Z,2.27
2018-12-20T12:11:03.668Z,2.63
2018-12-20T12:13:31.169Z,2.67
2018-12-20T12:15:58.691Z,2.73
2018-12-20T12:18:26.192Z,2.00
2018-12-20T12:20:53.717Z,1.87
2018-12-20T12:23:21.216Z,2.30
2018-12-20T12:25:48.740Z,1.70
2018-12-20T12:28:16.241Z,2.30
2018-12-20T12:30:43.768Z,1.90
2018-12-20T12:33:11.264Z,1.93
2018-12-20T12:35:38.791Z,1.70
2018-12-20T12:38:06.288Z,2.30
2018-12-20T12:40:33.813Z,2.27
2018-12-20T12:43:01.313Z,2.20
2018-12-20T12:45:28.838Z,1.90
2018-12-20T12:48:03.685Z,2.00
2018-12-20T12:50:28.868Z,1.90
2018-12-20T12:52:56.368Z,4.67
2018-12-20T12:55:23.976Z,2.23
2018-12-20T12:57:51.471Z,1.90
2018-12-20T13:00:20.338Z,1.80
2018-12-20T13:02:48.340Z,1.43
2018-12-20T13:05:16.700Z,3.20
2018-12-20T13:07:44.304Z,1.60
2018-12-20T13:10:11.976Z,1.97
2018-12-20T13:12:39.504Z,1.87
2018-12-20T13:15:09.567Z,1.40
2018-12-20T13:17:37.172Z,1.40
2018-12-20T13:20:07.437Z,2.10
2018-12-20T13:22:34.960Z,1.60
2018-12-20T13:25:02.464Z,1.50
2018-12-20T13:27:29.988Z,1.67
2018-12-20T13:29:57.497Z,1.77
2018-12-20T13:32:25.020Z,1.83
2018-12-20T13:34:52.520Z,1.10
2018-12-20T13:37:20.045Z,1.27
2018-12-20T13:39:47.548Z,1.70
2018-12-20T13:42:15.049Z,1.53
2018-12-20T13:44:42.585Z,1.10
2018-12-20T13:47:10.083Z,1.30
2018-12-20T13:49:37.600Z,1.50
2018-12-20T13:52:05.098Z,1.80
2018-12-20T13:54:32.616Z,1.80
2018-12-20T13:57:00.107Z,1.60
2018-12-20T13:59:28.313Z,1.80
2018-12-20T14:01:55.808Z,1.43
2018-12-20T14:04:23.327Z,2.33
2018-12-20T14:06:50.829Z,1.83
2018-12-20T14:09:19.825Z,1.53
2018-12-20T14:11:47.571Z,1.47
2018-12-20T14:14:15.323Z,2.20
2018-12-20T14:16:42.840Z,1.70
2018-12-20T14:19:10.331Z,1.60
2018-12-20T14:21:37.856Z,1.60
2018-12-20T14:24:05.356Z,1.43
2018-12-20T14:26:32.872Z,1.50
2018-12-20T14:29:00.370Z,1.50
2018-12-20T14:31:27.896Z,1.50
2018-12-20T14:33:55.397Z,1.40
2018-12-20T14:36:22.891Z,1.40
2018-12-20T14:38:50.413Z,2.10
2018-12-20T14:41:17.912Z,2.73
2018-12-20T14:43:45.457Z,1.60
2018-12-20T14:46:13.043Z,1.90
2018-12-20T14:48:40.560Z,2.10
2018-12-20T14:51:08.051Z,3.63
2018-12-20T14:53:35.575Z,5.70
2018-12-20T14:56:03.080Z,3.17
2018-12-20T14:58:30.593Z,1.60
2018-12-20T15:00:58.120Z,6.60
2018-12-20T15:03:25.631Z,3.77
2018-12-20T15:05:53.156Z,6.33
2018-12-20T15:08:20.656Z,3.80
2018-12-20T15:10:48.181Z,3.33
2018-12-20T15:13:15.680Z,1.83
2018-12-20T15:15:43.200Z,2.80
2018-12-20T15:18:10.700Z,3.00
2018-12-20T15:20:40.713Z,2.97
2018-12-20T15:23:07.740Z,2.30
2018-12-20T15:25:35.236Z,2.50
2018-12-20T15:28:02.765Z,2.50
2018-12-20T15:30:30.319Z,2.40
2018-12-20T15:32:57.908Z,3.90
2018-12-20T15:35:25.408Z,2.93
2018-12-20T15:37:52.932Z,2.10
2018-12-20T15:40:20.432Z,2.00
2018-12-20T15:42:47.964Z,2.10
2018-12-20T15:45:15.461Z,2.43
2018-12-20T15:47:42.979Z,2.30
2018-12-20T15:50:12.184Z,2.03
2018-12-20T15:52:39.932Z,2.47
2018-12-20T15:55:07.436Z,2.73
2018-12-20T15:57:34.960Z,2.87
2018-12-20T16:00:02.544Z,2.60
2018-12-20T16:02:30.046Z,2.40
2018-12-20T16:04:57.571Z,2.57
2018-12-20T16:07:25.070Z,2.83
2018-12-20T16:09:52.592Z,3.20
2018-12-20T16:12:20.091Z,4.00
2018-12-20T16:14:47.593Z,3.10
2018-12-20T16:17:15.124Z,3.20
2018-12-20T16:19:42.618Z,3.73
2018-12-20T16:22:10.140Z,3.03
2018-12-20T16:24:37.640Z,3.03
2018-12-20T16:27:05.164Z,3.27
2018-12-20T16:29:32.664Z,3.13
2018-12-20T16:32:00.179Z,5.30
2018-12-20T16:34:27.676Z,3.10
2018-12-20T16:36:55.192Z,3.93
2018-12-20T16:39:22.687Z,5.60
2018-12-20T16:41:50.184Z,5.47
2018-12-20T16:44:17.704Z,6.43
2018-12-20T16:46:45.202Z,6.83
2018-12-20T16:49:13.676Z,4.10
2018-12-20T16:51:41.644Z,3.60
2018-12-20T16:54:09.173Z,5.00
2018-12-20T16:56:36.667Z,3.43
2018-12-20T16:59:04.247Z,3.60
2018-12-20T17:01:31.765Z,4.00
2018-12-20T17:03:59.266Z,3.97
2018-12-20T17:06:26.859Z,3.13
2018-12-20T17:08:54.356Z,4.20
2018-12-20T17:11:21.936Z,3.93
2018-12-20T17:13:49.536Z,3.30
2018-12-20T17:16:17.032Z,3.00
2018-12-20T17:18:44.560Z,3.33
2018-12-20T17:21:12.060Z,3.80
2018-12-20T17:23:39.584Z,4.03
2018-12-20T17:26:07.164Z,4.50
2018-12-20T17:28:34.664Z,4.20
2018-12-20T17:31:02.264Z,4.40
2018-12-20T17:33:29.767Z,3.57
2018-12-20T17:35:57.293Z,4.10
2018-12-20T17:38:24.792Z,3.80
2018-12-20T17:40:52.317Z,4.20
2018-12-20T17:43:19.832Z,4.00
2018-12-20T17:45:47.361Z,3.70
2018-12-20T17:48:14.865Z,4.10
2018-12-20T17:50:42.367Z,3.50
2018-12-20T17:53:09.891Z,3.53
2018-12-20T17:55:44.522Z,4.30
2018-12-20T17:58:06.932Z,3.63
2018-12-20T18:00:34.433Z,3.70
2018-12-20T18:03:01.953Z,3.03
2018-12-20T18:05:29.453Z,3.57
2018-12-20T18:07:56.968Z,2.80
2018-12-20T18:10:24.464Z,3.30
2018-12-20T18:12:51.988Z,3.60
2018-12-20T18:15:19.497Z,4.07
2018-12-20T18:17:47.018Z,5.40
2018-12-20T18:20:14.517Z,4.43
2018-12-20T18:22:42.051Z,4.37
2018-12-20T18:25:09.549Z,3.40
2018-12-20T18:27:37.044Z,2.87
2018-12-20T18:30:07.924Z,3.83
2018-12-20T18:32:35.502Z,4.80
2018-12-20T18:35:03.096Z,5.00
2018-12-20T18:37:30.589Z,4.40
2018-12-20T18:39:58.191Z,3.10
2018-12-20T18:42:25.696Z,3.30
2018-12-20T18:44:53.220Z,3.53
2018-12-20T18:47:20.846Z,6.10
2018-12-20T18:49:48.436Z,4.27
2018-12-20T18:52:15.962Z,4.60
2018-12-20T18:54:43.459Z,3.50
2018-12-20T18:57:10.975Z,4.20
2018-12-20T18:59:38.476Z,4.27
2018-12-20T19:02:05.997Z,3.67
2018-12-20T19:04:33.495Z,6.10
2018-12-20T19:07:01.020Z,2.73
2018-12-20T19:09:28.517Z,2.60
2018-12-20T19:11:56.036Z,2.40
2018-12-20T19:14:23.540Z,2.10
2018-12-20T19:16:51.059Z,1.90
2018-12-20T19:19:18.641Z,2.60
2018-12-20T19:21:46.136Z,2.70
2018-12-20T19:24:13.652Z,2.10
2018-12-20T19:26:41.150Z,2.17
2018-12-20T19:29:08.671Z,2.50
2018-12-20T19:31:36.167Z,2.23
2018-12-20T19:34:03.689Z,1.80
2018-12-20T19:36:31.188Z,2.20
2018-12-20T19:38:58.763Z,3.53
2018-12-20T19:41:26.285Z,2.60
2018-12-20T19:43:53.784Z,1.90
2018-12-20T19:46:21.308Z,2.50
2018-12-20T19:48:48.803Z,2.60
2018-12-20T19:51:16.316Z,2.17
2018-12-20T19:53:43.814Z,3.30
2018-12-20T19:56:11.312Z,4.17
2018-12-20T19:58:38.832Z,2.77
2018-12-20T20:01:06.336Z,2.80
2018-12-20T20:03:33.856Z,3.53
2018-12-20T20:06:01.386Z,3.87
2018-12-20T20:08:29.004Z,3.70
2018-12-20T20:10:56.495Z,3.70
2018-12-20T20:13:30.751Z,4.03
2018-12-20T20:15:53.535Z,3.97
2018-12-20T20:18:21.065Z,3.80
2018-12-20T20:20:48.565Z,3.47
2018-12-20T20:23:16.064Z,4.00
2018-12-20T20:25:43.591Z,3.80
2018-12-20T20:28:11.093Z,4.10
2018-12-20T20:30:38.616Z,3.73
2018-12-20T20:33:06.148Z,5.17
2018-12-20T20:35:33.759Z,3.60
2018-12-20T20:38:01.261Z,4.30
2018-12-20T20:40:28.783Z,4.70
2018-12-20T20:42:56.279Z,3.67
2018-12-20T20:45:23.800Z,4.70
2018-12-20T20:47:51.296Z,3.73
2018-12-20T20:50:22.698Z,3.93
2018-12-20T20:52:48.343Z,3.47
2018-12-20T20:55:15.865Z,4.60
2018-12-20T20:57:43.365Z,4.50
2018-12-20T21:00:10.892Z,5.10
2018-12-20T21:02:38.394Z,4.33
2018-12-20T21:05:07.080Z,3.60
2018-12-20T21:07:34.651Z,4.50
2018-12-20T21:10:02.190Z,4.73
2018-12-20T21:12:29.793Z,3.93
2018-12-20T21:14:57.308Z,3.60
2018-12-20T21:17:24.809Z,3.40
2018-12-20T21:19:52.323Z,5.40
2018-12-20T21:22:19.825Z,4.77
2018-12-20T21:24:47.352Z,6.53
2018-12-20T21:27:14.848Z,6.93
2018-12-20T21:29:42.373Z,4.67
2018-12-20T21:32:09.863Z,3.97
2018-12-20T21:34:37.360Z,3.83
2018-12-20T21:37:04.883Z,5.67
2018-12-20T21:39:32.375Z,3.60
2018-12-20T21:41:59.892Z,3.47
2018-12-20T21:44:27.392Z,3.27
2018-12-20T21:46:54.915Z,4.97
2018-12-20T21:49:22.407Z,4.40
2018-12-20T21:51:49.924Z,3.10
2018-12-20T21:54:17.415Z,3.73
2018-12-20T21:56:45.160Z,2.60
2018-12-20T21:59:12.659Z,3.40
2018-12-20T22:01:40.156Z,2.87
2018-12-20T22:04:07.671Z,2.70
2018-12-20T22:06:35.189Z,2.83
2018-12-20T22:09:04.268Z,2.80
2018-12-20T22:11:31.768Z,2.80
2018-12-20T22:13:59.289Z,2.60
2018-12-20T22:16:26.784Z,2.60
2018-12-20T22:18:54.313Z,3.20
2018-12-20T22:21:21.812Z,2.63
2018-12-20T22:23:49.311Z,2.40
2018-12-20T22:26:16.828Z,3.07
2018-12-20T22:28:44.323Z,3.03
2018-12-20T22:31:11.844Z,2.63
2018-12-20T22:33:39.335Z,2.90
2018-12-20T22:36:06.856Z,3.10
2018-12-20T22:38:34.347Z,3.00
2018-12-20T22:41:01.867Z,2.60
2018-12-20T22:43:29.367Z,2.13
2018-12-20T22:45:56.892Z,3.00
2018-12-20T22:48:24.387Z,2.20
2018-12-20T22:50:55.902Z,3.00
2018-12-20T22:53:21.427Z,3.00
2018-12-20T22:55:48.924Z,2.33
2018-12-20T22:58:16.447Z,2.77
2018-12-20T23:00:46.389Z,2.30
2018-12-20T23:03:13.907Z,2.20
2018-12-20T23:05:42.271Z,2.30
2018-12-20T23:08:09.792Z,2.27
2018-12-20T23:10:37.288Z,2.27
2018-12-20T23:13:04.809Z,2.30
2018-12-20T23:15:32.313Z,2.50
2018-12-20T23:17:59.838Z,2.50
2018-12-20T23:20:27.328Z,1.70
2018-12-20T23:22:54.820Z,2.80
2018-12-20T23:25:22.341Z,2.50
2018-12-20T23:27:49.839Z,1.83
2018-12-20T23:30:17.360Z,1.80
2018-12-20T23:32:44.855Z,2.20
2018-12-20T23:35:12.377Z,2.20
2018-12-20T23:37:39.882Z,2.27
2018-12-20T23:40:07.585Z,2.27
2018-12-20T23:42:35.080Z,1.70
2018-12-20T23:45:02.581Z,2.30
2018-12-20T23:47:30.099Z,2.23
2018-12-20T23:49:57.598Z,1.67
2018-12-20T23:52:25.125Z,1.90
2018-12-20T23:54:52.620Z,2.00
2018-12-20T23:57:20.136Z,2.00
2018-12-20T23:59:47.634Z,2.13
